Observations for Trim Market St
| Time | AQI | Temp °C | Hum % | Pres Pa | CO μg/m³ | H₂S μg/m³ | NO μg/m³ | NO₂ μg/m³ | O₃ μg/m³ | SO₂ μg/m³ | PM1 μg/m³ | PM2.5 μg/m³ | PM10 μg/m³ |
|---|---|---|---|---|---|---|---|---|---|---|---|---|---|
| Sunday 12 July 2026 | |||||||||||||
| 19:41 | 2 | 26 | 49 | 58,684 | 0 | 0 | 0 | 5.49 | 29.54 | 0 | 0.71 | 3.02 | 3.32 |
| 19:39 | 2 | 26 | 49 | 58,906 | 0 | 0 | 0 | 7.91 | 26.9 | 0 | 1.43 | 3.54 | 5.27 |
| 19:37 | 2 | 26 | 49 | 59,014 | 0 | 0 | 0 | 5.01 | 28.62 | 0 | 1.43 | 3.54 | 3.76 |
| 19:36 | 2 | 26.1 | 49 | 58,941 | 0 | 0 | 0 | 5.09 | 29.27 | 0 | 0.71 | 4.06 | 4.51 |
| 19:35 | 2 | 26.1 | 49 | 58,858 | 0 | 0 | 0 | 5.5 | 30.78 | 0 | 0.71 | 3.55 | 4.51 |
| 19:34 | 2 | 26.1 | 49 | 58,959 | 0 | 0 | 0 | 6.3 | 31.32 | 0 | 1.43 | 4.06 | 5.27 |
| 19:33 | 2 | 26.1 | 48 | 59,129 | 0 | 0 | 0 | 5.71 | 30.42 | 0 | 1.43 | 4.07 | 4.51 |
| 19:32 | 2 | 26.1 | 48 | 59,247 | 0 | 0 | 0 | 5.02 | 31.37 | 0 | 0.71 | 4.07 | 5.26 |
| 19:31 | 2 | 26.1 | 48 | 59,318 | 0 | 0 | 0 | 4.53 | 29.59 | 0 | 2.14 | 4.08 | 4.5 |
| 19:30 | 2 | 26.1 | 48 | 59,370 | 0 | 0 | 0 | 4.83 | 29.83 | 0 | 1.43 | 3.56 | 3.75 |
| 19:29 | 2 | 26.1 | 48 | 59,391 | 0 | 0 | 0 | 4.43 | 28.97 | 0 | 1.43 | 3.56 | 6.02 |
| 19:28 | 2 | 26.2 | 48 | 59,328 | 0 | 0 | 0 | 4.81 | 29 | 0 | 0.71 | 3.56 | 3.75 |
| 19:27 | 2 | 26.2 | 48 | 59,379 | 0 | 0 | 0 | 5.21 | 31.36 | 0 | 2.85 | 5.11 | 6.77 |
| 19:26 | 2 | 26.2 | 48 | 59,326 | 0 | 0 | 0 | 4.21 | 29.37 | 0 | 0 | 3.04 | 3.35 |
| 19:25 | 2 | 26.2 | 48 | 59,184 | 0 | 0 | 0 | 4.09 | 26.71 | 0 | 0.71 | 3.56 | 3.75 |
| 19:24 | 2 | 26.2 | 48 | 59,026 | 0 | 0 | 0 | 3.99 | 27.59 | 0 | 0.71 | 3.04 | 3.34 |
| 19:22 | 2 | 26.2 | 48 | 58,820 | 0 | 0 | 0 | 4.11 | 28.54 | 0 | 0.71 | 3.56 | 3.75 |
| 19:20 | 2 | 26.3 | 48 | 58,651 | 0 | 0 | 0 | 4.27 | 26.9 | 0 | 1.43 | 3.56 | 4.51 |
| 19:16 | 2 | 26.3 | 48 | 57,994 | 0 | 0 | 0 | 6.26 | 28.5 | 0 | 1.43 | 4.07 | 4.51 |
| 19:09 | 2 | 26.4 | 48 | 57,796 | 0 | 0 | 0 | 7.66 | 32.91 | 0 | 1.43 | 4.08 | 4.5 |